Time;durP1;ratioP1;P1;durP2;ratioP2;P2;SDS_P1;SDS_P2;PMS_P1;PMS_P2;Temp;Humidity;BMP_temperature;BMP_pressure;BME280_temperature;BME280_humidity;BME280_pressure;Samples;Min_cycle;Max_cycle;Signal;HPM_P1;HPM_P2
2021/06/16 00:00:22;;;;;;;2.25;0.65;;;19.30;52.20;;;;;;4686938;30;20046;-76
2021/06/16 00:02:50;;;;;;;1.35;0.50;;;19.30;52.40;;;;;;4688249;30;20125;-75
2021/06/16 00:05:24;;;;;;;2.00;0.40;;;19.30;52.50;;;;;;4683366;30;20050;-76
2021/06/16 00:07:51;;;;;;;2.20;0.40;;;19.20;52.50;;;;;;4685614;30;20046;-76
2021/06/16 00:10:30;;;;;;;3.22;0.55;;;19.20;52.70;;;;;;4681661;30;20046;-76
2021/06/16 00:12:58;;;;;;;2.28;0.50;;;19.10;52.80;;;;;;4675311;30;20442;-75
2021/06/16 00:15:28;;;;;;;2.85;0.60;;;19.10;52.90;;;;;;4683171;30;20131;-76
2021/06/16 00:17:55;;;;;;;3.33;0.55;;;19.10;53.10;;;;;;4685193;30;20069;-75
2021/06/16 00:20:24;;;;;;;1.23;0.50;;;19.10;53.10;;;;;;4670686;30;20096;-76
2021/06/16 00:22:52;;;;;;;2.65;0.50;;;19.00;53.20;;;;;;4701352;30;20054;-75
2021/06/16 00:25:20;;;;;;;3.55;0.88;;;19.00;53.30;;;;;;4684055;30;20050;-75
2021/06/16 00:27:47;;;;;;;1.58;0.60;;;19.00;53.40;;;;;;4689297;30;20073;-76
2021/06/16 00:30:14;;;;;;;1.10;0.40;;;19.00;53.40;;;;;;4682981;30;20061;-76
2021/06/16 00:32:43;;;;;;;1.80;0.50;;;19.00;53.40;;;;;;4691431;30;20045;-75
2021/06/16 00:35:11;;;;;;;1.83;0.55;;;19.00;53.50;;;;;;4694529;30;20127;-76
2021/06/16 00:37:38;;;;;;;1.42;0.70;;;18.90;53.60;;;;;;4676862;30;20052;-75
2021/06/16 00:40:08;;;;;;;2.70;0.40;;;18.90;53.70;;;;;;4676957;30;20096;-76
2021/06/16 00:42:36;;;;;;;2.85;0.63;;;18.80;53.80;;;;;;4682319;30;20410;-77
2021/06/16 00:45:05;;;;;;;1.95;0.50;;;18.80;53.90;;;;;;4672587;30;20117;-77
2021/06/16 00:47:33;;;;;;;1.75;0.40;;;18.80;53.90;;;;;;4686308;30;20050;-77
2021/06/16 00:50:00;;;;;;;1.02;0.45;;;18.70;54.00;;;;;;4667038;30;20407;-77
2021/06/16 00:52:27;;;;;;;3.30;0.55;;;18.70;54.10;;;;;;4680116;30;20050;-77
2021/06/16 00:54:54;;;;;;;2.50;0.70;;;18.70;54.20;;;;;;4684637;30;20053;-77
2021/06/16 00:57:21;;;;;;;0.88;0.40;;;18.60;54.20;;;;;;4692171;30;20129;-77
2021/06/16 01:00:02;;;;;;;1.52;0.60;;;18.60;54.20;;;;;;4689049;30;20054;-76
2021/06/16 01:02:34;;;;;;;2.35;0.63;;;18.60;54.20;;;;;;4686960;30;20088;-76
2021/06/16 01:05:02;;;;;;;;;;;18.60;54.30;;;;;;4698217;30;20045;-76
2021/06/16 01:07:35;;;;;;;2.58;0.40;;;18.60;54.20;;;;;;4705387;30;19926;-77
2021/06/16 01:10:04;;;;;;;2.15;0.73;;;18.50;54.30;;;;;;4683035;30;20461;-76
2021/06/16 01:12:31;;;;;;;2.30;0.40;;;18.50;54.50;;;;;;4694660;30;20103;-76
2021/06/16 01:15:10;;;;;;;0.98;0.40;;;18.50;54.60;;;;;;4687678;30;20052;-77
2021/06/16 01:18:02;;;;;;;1.75;0.40;;;18.40;54.60;;;;;;4689931;30;20053;-76
2021/06/16 01:20:42;;;;;;;3.20;0.65;;;18.40;54.60;;;;;;4690781;30;21584;-77
2021/06/16 01:23:09;;;;;;;2.30;0.40;;;18.40;54.70;;;;;;4681298;30;20081;-77
2021/06/16 01:25:48;;;;;;;3.25;0.80;;;18.40;54.80;;;;;;4684226;30;20057;-77
2021/06/16 01:28:18;;;;;;;0.82;0.30;;;18.40;54.80;;;;;;4698855;30;20050;-77
2021/06/16 01:30:47;;;;;;;1.50;0.40;;;18.40;54.90;;;;;;4709075;30;20053;-77
2021/06/16 01:33:17;;;;;;;2.53;0.52;;;18.30;54.80;;;;;;4698789;30;20495;-76
2021/06/16 01:35:47;;;;;;;2.10;0.50;;;18.30;55.00;;;;;;4686894;30;20111;-77
2021/06/16 01:38:19;;;;;;;2.97;0.40;;;18.30;55.00;;;;;;4675566;30;20054;-77
2021/06/16 01:40:48;;;;;;;2.05;0.40;;;18.30;55.00;;;;;;4676493;30;20050;-77
2021/06/16 01:43:17;;;;;;;2.72;0.50;;;18.30;55.00;;;;;;4692275;30;20121;-77
2021/06/16 01:45:46;;;;;;;1.42;0.40;;;18.30;55.70;;;;;;4679037;30;20447;-76
2021/06/16 01:48:17;;;;;;;1.70;0.50;;;18.20;55.10;;;;;;4690922;30;20068;-77
2021/06/16 01:50:46;;;;;;;2.75;0.30;;;18.20;55.20;;;;;;4677379;30;20050;-77
2021/06/16 01:53:14;;;;;;;2.08;0.50;;;18.20;55.20;;;;;;4672359;30;20061;-77
2021/06/16 01:55:42;;;;;;;1.40;0.50;;;18.20;55.20;;;;;;4700775;30;20067;-77
2021/06/16 01:58:09;;;;;;;1.95;0.40;;;18.20;55.30;;;;;;4679369;30;20046;-77
2021/06/16 02:00:39;;;;;;;2.03;0.50;;;18.20;55.40;;;;;;4702771;30;20611;-77
2021/06/16 02:03:06;;;;;;;1.05;0.50;;;18.20;55.40;;;;;;4693358;30;20058;-77
2021/06/16 02:05:34;;;;;;;2.15;0.55;;;18.20;55.50;;;;;;4697011;30;20049;-77
2021/06/16 02:08:10;;;;;;;2.47;0.60;;;18.10;56.10;;;;;;4687811;30;20080;-77
2021/06/16 02:10:42;;;;;;;2.25;0.50;;;18.10;55.50;;;;;;4672787;30;20110;-77
2021/06/16 02:13:10;;;;;;;;;;;18.10;55.60;;;;;;4679367;30;20422;-76
2021/06/16 02:15:44;;;;;;;1.70;0.30;;;18.00;55.60;;;;;;4653020;30;20018;-77
2021/06/16 02:18:12;;;;;;;2.17;0.50;;;18.00;55.70;;;;;;4692936;30;20462;-76
2021/06/16 02:20:40;;;;;;;1.13;0.40;;;17.90;55.70;;;;;;4685429;30;21803;-77
2021/06/16 02:23:07;;;;;;;1.92;0.47;;;18.00;55.80;;;;;;4687372;30;20497;-77
2021/06/16 02:25:34;;;;;;;1.25;0.43;;;17.90;55.80;;;;;;4679656;30;20054;-77
2021/06/16 02:28:02;;;;;;;0.82;0.30;;;17.90;56.00;;;;;;4674679;30;20499;-77
2021/06/16 02:30:29;;;;;;;1.08;0.30;;;17.90;56.10;;;;;;4674824;30;20072;-77
2021/06/16 02:32:56;;;;;;;0.75;0.30;;;17.90;56.10;;;;;;4679048;30;20119;-77
2021/06/16 02:35:23;;;;;;;3.13;0.75;;;17.90;56.20;;;;;;4671819;30;20794;-77
2021/06/16 02:38:12;;;;;;;1.35;0.47;;;17.90;56.20;;;;;;4700583;30;20057;-77
2021/06/16 02:40:41;;;;;;;2.97;0.60;;;17.80;56.20;;;;;;4703182;30;20426;-77
2021/06/16 02:43:09;;;;;;;1.52;0.50;;;17.80;56.40;;;;;;4699220;30;20108;-77
2021/06/16 02:45:38;;;;;;;4.03;0.60;;;17.80;56.50;;;;;;4699708;30;20135;-77
2021/06/16 02:48:07;;;;;;;1.10;0.40;;;17.80;56.60;;;;;;4685039;30;20053;-77
2021/06/16 02:50:36;;;;;;;3.13;0.50;;;17.70;56.60;;;;;;4700962;30;20045;-77
2021/06/16 02:53:24;;;;;;;1.48;0.50;;;17.70;56.70;;;;;;4702056;30;20049;-77
2021/06/16 02:55:54;;;;;;;1.45;0.60;;;17.70;56.70;;;;;;4678952;30;20069;-76
2021/06/16 02:58:22;;;;;;;3.47;0.50;;;17.70;56.90;;;;;;4700146;30;20053;-77
2021/06/16 03:00:58;;;;;;;1.13;0.50;;;17.60;56.90;;;;;;4707381;30;20072;-77
2021/06/16 03:03:26;;;;;;;1.80;0.55;;;17.60;57.00;;;;;;4681941;30;20479;-77
2021/06/16 03:05:55;;;;;;;2.60;0.47;;;17.60;57.00;;;;;;4685209;30;20050;-76
2021/06/16 03:08:24;;;;;;;2.92;0.50;;;17.60;57.10;;;;;;4687196;30;20046;-76
2021/06/16 03:10:53;;;;;;;2.20;0.57;;;17.50;57.10;;;;;;4683417;30;20073;-76
2021/06/16 03:13:25;;;;;;;2.83;0.60;;;17.50;57.20;;;;;;4676923;30;21744;-76
2021/06/16 03:15:52;;;;;;;0.82;0.43;;;17.50;57.30;;;;;;4681263;30;20141;-77
2021/06/16 03:18:22;;;;;;;3.15;0.70;;;17.50;57.40;;;;;;4686625;30;20057;-76
2021/06/16 03:20:49;;;;;;;1.45;0.40;;;17.40;58.00;;;;;;4672965;30;20073;-76
2021/06/16 03:23:16;;;;;;;1.90;0.50;;;17.40;57.50;;;;;;4686987;30;20078;-76
2021/06/16 03:25:45;;;;;;;1.75;0.80;;;17.40;57.60;;;;;;4683067;30;20109;-76
2021/06/16 03:28:13;;;;;;;2.88;0.60;;;17.40;57.70;;;;;;4677253;30;20047;-76
2021/06/16 03:30:40;;;;;;;3.03;0.70;;;17.40;57.70;;;;;;4681356;30;20046;-77
2021/06/16 03:33:08;;;;;;;2.20;0.65;;;17.40;57.80;;;;;;4673211;30;20129;-76
2021/06/16 03:35:36;;;;;;;3.08;0.70;;;17.40;57.80;;;;;;4681775;30;20050;-77
2021/06/16 03:38:04;;;;;;;3.75;0.80;;;17.40;58.00;;;;;;4679474;30;20512;-76
2021/06/16 03:40:31;;;;;;;3.42;0.68;;;17.40;57.90;;;;;;4680191;30;20050;-77
2021/06/16 03:43:00;;;;;;;2.05;0.63;;;17.40;58.00;;;;;;4662735;30;20054;-77
2021/06/16 03:45:28;;;;;;;1.65;0.70;;;17.40;58.10;;;;;;4680612;30;20053;-77
2021/06/16 03:47:58;;;;;;;1.35;0.60;;;17.40;58.20;;;;;;4672851;30;20054;-77
2021/06/16 03:50:26;;;;;;;2.03;0.70;;;17.40;58.10;;;;;;4681514;30;20112;-77
2021/06/16 03:52:55;;;;;;;3.55;0.70;;;17.40;58.20;;;;;;4675989;30;20061;-77
2021/06/16 03:55:23;;;;;;;2.60;0.70;;;17.40;58.20;;;;;;4680841;30;20084;-77
2021/06/16 03:57:51;;;;;;;1.88;0.60;;;17.40;58.20;;;;;;4668498;30;20420;-76
2021/06/16 04:00:19;;;;;;;3.55;0.60;;;17.40;58.30;;;;;;4681406;30;20057;-77
2021/06/16 04:02:48;;;;;;;1.70;0.80;;;17.40;58.30;;;;;;4702806;30;20515;-77
2021/06/16 04:05:16;;;;;;;4.32;0.57;;;17.40;58.30;;;;;;4688461;30;20496;-76
2021/06/16 04:07:48;;;;;;;3.05;0.85;;;17.40;58.30;;;;;;4693372;30;20187;-77
2021/06/16 04:10:18;;;;;;;6.28;0.77;;;17.40;58.30;;;;;;4688214;30;20053;-76
2021/06/16 04:12:47;;;;;;;3.10;0.52;;;17.40;58.40;;;;;;4689454;30;20096;-77
2021/06/16 04:15:17;;;;;;;2.88;0.85;;;17.40;58.40;;;;;;4683366;30;20041;-76
2021/06/16 04:17:44;;;;;;;3.25;0.85;;;17.50;58.40;;;;;;4665011;30;20080;-76
2021/06/16 04:20:13;;;;;;;2.80;0.80;;;17.50;58.40;;;;;;4704281;30;20049;-77
2021/06/16 04:22:41;;;;;;;1.85;0.70;;;17.50;58.50;;;;;;4694330;30;20045;-76
2021/06/16 04:25:09;;;;;;;3.58;0.88;;;17.50;58.50;;;;;;4694257;30;20054;-76
2021/06/16 04:27:36;;;;;;;1.45;0.68;;;17.50;58.50;;;;;;4709913;30;20505;-76
2021/06/16 04:30:09;;;;;;;1.58;0.82;;;17.50;58.50;;;;;;4683764;30;20054;-76
2021/06/16 04:32:38;;;;;;;4.80;0.90;;;17.60;58.50;;;;;;4696910;30;20681;-76
2021/06/16 04:35:10;;;;;;;3.35;0.60;;;17.70;58.40;;;;;;4699261;30;20042;-77
2021/06/16 04:37:37;;;;;;;3.53;1.13;;;17.80;58.20;;;;;;4678001;30;20065;-76
2021/06/16 04:40:05;;;;;;;3.60;0.98;;;17.80;58.10;;;;;;4681766;30;20052;-76
2021/06/16 04:42:33;;;;;;;2.13;0.65;;;17.80;58.20;;;;;;4696773;30;20046;-76
2021/06/16 04:45:00;;;;;;;2.40;0.90;;;17.80;58.20;;;;;;4688556;30;20495;-76
2021/06/16 04:47:27;;;;;;;2.78;0.80;;;17.90;58.30;;;;;;4716416;30;20057;-76
2021/06/16 04:49:54;;;;;;;3.22;0.90;;;17.90;58.30;;;;;;4670195;30;20045;-76
2021/06/16 04:52:21;;;;;;;1.70;0.70;;;18.00;58.30;;;;;;4692424;30;20045;-77
2021/06/16 04:54:48;;;;;;;4.25;1.00;;;18.00;58.30;;;;;;4693264;30;20060;-76
2021/06/16 04:57:16;;;;;;;3.38;1.10;;;18.10;58.20;;;;;;4674801;30;20053;-76
2021/06/16 04:59:43;;;;;;;2.83;0.77;;;18.10;58.20;;;;;;4693654;30;20057;-76
2021/06/16 05:02:10;;;;;;;2.88;0.82;;;18.10;58.10;;;;;;4673158;30;20097;-76
2021/06/16 05:04:37;;;;;;;1.45;0.63;;;18.20;58.10;;;;;;4699881;30;20127;-76
2021/06/16 05:07:04;;;;;;;2.10;0.80;;;18.30;58.00;;;;;;4666185;30;20062;-76
2021/06/16 05:09:31;;;;;;;2.22;0.77;;;18.40;57.90;;;;;;4666078;30;20073;-76
2021/06/16 05:11:58;;;;;;;1.73;0.70;;;18.40;57.80;;;;;;4678004;30;20053;-77
2021/06/16 05:14:25;;;;;;;2.70;0.98;;;18.50;57.80;;;;;;4674758;30;20057;-76
2021/06/16 05:16:54;;;;;;;3.25;1.20;;;18.60;57.70;;;;;;4703480;30;20125;-76
2021/06/16 05:19:21;;;;;;;4.32;1.00;;;18.60;57.60;;;;;;4683129;30;20491;-76
2021/06/16 05:21:49;;;;;;;3.15;1.08;;;18.70;57.60;;;;;;4682324;30;20095;-77
2021/06/16 05:24:17;;;;;;;3.35;0.98;;;18.80;57.60;;;;;;4669144;30;20050;-77
2021/06/16 05:26:44;;;;;;;2.05;0.80;;;18.80;57.50;;;;;;4682635;30;20358;-77
2021/06/16 05:29:11;;;;;;;4.18;1.10;;;18.90;57.50;;;;;;4666184;30;20073;-77
2021/06/16 05:31:38;;;;;;;3.13;1.02;;;18.90;57.50;;;;;;4668567;30;20498;-76
2021/06/16 05:34:06;;;;;;;3.17;0.90;;;18.90;57.40;;;;;;4680628;30;20511;-76
2021/06/16 05:36:34;;;;;;;2.45;0.57;;;19.00;57.50;;;;;;4671518;30;20069;-76
2021/06/16 05:39:01;;;;;;;2.22;0.80;;;19.10;57.40;;;;;;4685939;30;20069;-76
2021/06/16 05:41:28;;;;;;;1.38;0.65;;;19.10;57.40;;;;;;4696604;30;20073;-76
2021/06/16 05:43:55;;;;;;;2.40;0.90;;;19.20;57.40;;;;;;4694467;30;20112;-76
2021/06/16 05:46:22;;;;;;;2.03;0.82;;;19.30;57.40;;;;;;4689675;30;20057;-75
2021/06/16 05:48:49;;;;;;;3.20;0.85;;;19.30;57.30;;;;;;4697323;30;20625;-76
2021/06/16 05:51:16;;;;;;;1.02;0.60;;;19.50;57.20;;;;;;4687082;30;20050;-76
2021/06/16 05:53:43;;;;;;;3.28;1.00;;;19.60;57.00;;;;;;4662875;30;20053;-76
2021/06/16 05:56:11;;;;;;;2.58;1.08;;;19.70;56.90;;;;;;4681569;30;20473;-75
2021/06/16 05:58:38;;;;;;;1.98;0.93;;;19.80;56.70;;;;;;4684208;30;20528;-76
2021/06/16 06:01:05;;;;;;;2.55;1.00;;;19.90;56.60;;;;;;4677205;30;20061;-76
2021/06/16 06:03:32;;;;;;;1.90;0.70;;;20.00;56.60;;;;;;4708519;30;20073;-76
2021/06/16 06:05:59;;;;;;;2.45;1.10;;;20.10;56.60;;;;;;4688112;30;20120;-76
2021/06/16 06:08:26;;;;;;;3.35;1.38;;;20.10;56.40;;;;;;4684324;30;20083;-76
2021/06/16 06:10:53;;;;;;;2.70;0.80;;;20.20;56.30;;;;;;4686919;30;20050;-76
2021/06/16 06:13:21;;;;;;;2.35;1.00;;;20.30;56.40;;;;;;4687441;30;20061;-76
2021/06/16 06:15:48;;;;;;;1.60;0.60;;;20.40;56.30;;;;;;4681258;30;20846;-76
2021/06/16 06:18:15;;;;;;;2.25;0.80;;;20.50;56.20;;;;;;4671861;30;20049;-76
2021/06/16 06:20:42;;;;;;;4.28;1.15;;;20.60;56.10;;;;;;4685753;30;20455;-77
2021/06/16 06:23:08;;;;;;;2.67;0.82;;;20.60;56.00;;;;;;4689186;30;20118;-76
2021/06/16 06:25:36;;;;;;;2.35;0.80;;;20.80;56.70;;;;;;4716036;30;20045;-76
2021/06/16 06:28:03;;;;;;;2.75;0.95;;;20.80;55.90;;;;;;4696668;30;20124;-76
2021/06/16 06:30:30;;;;;;;2.97;0.90;;;20.80;55.90;;;;;;4689627;30;20042;-77
2021/06/16 06:32:57;;;;;;;2.63;0.73;;;20.90;55.90;;;;;;4677790;30;20057;-76
2021/06/16 06:35:24;;;;;;;2.53;1.00;;;21.00;55.90;;;;;;4689560;30;20046;-77
2021/06/16 06:37:51;;;;;;;2.83;1.20;;;21.10;55.80;;;;;;4701906;30;20064;-76
2021/06/16 06:40:18;;;;;;;1.70;0.90;;;21.10;56.30;;;;;;4669184;30;20095;-76
2021/06/16 06:42:45;;;;;;;1.95;0.80;;;21.20;55.60;;;;;;4701371;30;20504;-76
2021/06/16 06:45:12;;;;;;;2.17;1.00;;;21.30;55.60;;;;;;4686624;30;20483;-76
2021/06/16 06:47:40;;;;;;;3.65;1.10;;;21.30;55.50;;;;;;4685036;30;20045;-76
2021/06/16 06:50:13;;;;;;;3.85;1.38;;;21.40;55.60;;;;;;4712447;30;20045;-76
2021/06/16 06:52:43;;;;;;;1.80;0.68;;;21.30;55.50;;;;;;4686606;30;20042;-77
2021/06/16 06:55:11;;;;;;;3.95;0.85;;;21.40;55.60;;;;;;4708810;30;20144;-76
2021/06/16 06:57:39;;;;;;;1.55;0.80;;;21.40;55.60;;;;;;4677015;30;20419;-76
2021/06/16 07:00:08;;;;;;;2.83;1.40;;;21.50;55.50;;;;;;4682621;30;20065;-76
2021/06/16 07:02:36;;;;;;;2.40;0.93;;;21.60;55.40;;;;;;4688558;30;20331;-76
2021/06/16 07:05:04;;;;;;;2.72;1.00;;;21.70;55.30;;;;;;4682473;30;20058;-77
2021/06/16 07:07:31;;;;;;;2.80;1.23;;;21.80;55.10;;;;;;4684539;30;20070;-77
2021/06/16 07:09:58;;;;;;;2.75;0.60;;;22.00;55.00;;;;;;4681980;30;20053;-77
2021/06/16 07:12:27;;;;;;;2.38;1.02;;;22.10;54.80;;;;;;4668597;30;20054;-76
2021/06/16 07:14:55;;;;;;;1.75;0.70;;;22.30;55.30;;;;;;4683212;30;20050;-76
2021/06/16 07:17:23;;;;;;;3.00;1.00;;;22.40;54.50;;;;;;4664716;30;20101;-77
2021/06/16 07:19:51;;;;;;;1.63;0.65;;;22.50;54.30;;;;;;4677792;30;20085;-77
2021/06/16 07:22:19;;;;;;;2.95;1.20;;;22.60;54.20;;;;;;4678402;30;20042;-76
2021/06/16 07:24:46;;;;;;;3.50;1.00;;;22.70;54.00;;;;;;4658386;30;20049;-73
2021/06/16 07:27:14;;;;;;;1.85;0.80;;;22.80;53.90;;;;;;4681204;30;20043;-73
2021/06/16 07:29:41;;;;;;;1.65;0.73;;;22.90;53.60;;;;;;4680031;30;20045;-74
2021/06/16 07:32:08;;;;;;;3.17;0.80;;;23.10;53.40;;;;;;4668464;30;20080;-73
2021/06/16 07:34:35;;;;;;;2.15;0.73;;;23.20;53.30;;;;;;4679078;30;20057;-73
2021/06/16 07:37:03;;;;;;;3.20;0.73;;;23.30;53.10;;;;;;4682362;30;20058;-73
2021/06/16 07:39:30;;;;;;;2.10;0.70;;;23.40;53.00;;;;;;4681957;30;20053;-74
2021/06/16 07:41:57;;;;;;;1.40;0.70;;;23.50;52.80;;;;;;4684605;30;20089;-74
2021/06/16 07:44:24;;;;;;;2.28;0.73;;;23.70;52.70;;;;;;4670357;30;20077;-74
2021/06/16 07:46:51;;;;;;;2.10;0.80;;;23.80;52.50;;;;;;4677266;30;20050;-73
2021/06/16 07:49:18;;;;;;;1.70;0.68;;;23.80;52.30;;;;;;4684595;30;20069;-73
2021/06/16 07:51:45;;;;;;;1.45;0.65;;;23.90;52.10;;;;;;4692119;30;20069;-74
2021/06/16 07:54:12;;;;;;;1.60;0.70;;;24.00;51.90;;;;;;4689743;30;20046;-74
2021/06/16 07:56:40;;;;;;;4.63;1.35;;;24.10;51.60;;;;;;4683439;30;20058;-73
2021/06/16 07:59:07;;;;;;;2.63;1.17;;;24.20;51.40;;;;;;4685871;30;20069;-72
2021/06/16 08:01:36;;;;;;;2.10;0.73;;;24.20;51.30;;;;;;4681087;30;20104;-73
2021/06/16 08:04:03;;;;;;;2.97;0.80;;;24.30;51.20;;;;;;4691579;30;20095;-74
2021/06/16 08:06:33;;;;;;;2.75;1.15;;;24.40;51.10;;;;;;4685943;30;20132;-71
2021/06/16 08:09:02;;;;;;;2.95;0.90;;;24.40;50.80;;;;;;4682680;30;20487;-71
2021/06/16 08:11:29;;;;;;;2.45;0.90;;;24.50;50.70;;;;;;4693540;30;20050;-71
2021/06/16 08:13:56;;;;;;;2.25;0.93;;;24.50;50.60;;;;;;4705834;30;20077;-71
2021/06/16 08:16:23;;;;;;;2.45;0.90;;;24.60;50.40;;;;;;4698824;30;20050;-71
2021/06/16 08:18:52;;;;;;;1.60;0.68;;;24.70;50.30;;;;;;4677888;30;20053;-71
2021/06/16 08:21:19;;;;;;;1.23;0.70;;;24.80;50.30;;;;;;4708519;30;20403;-71
2021/06/16 08:23:47;;;;;;;1.83;0.55;;;24.90;50.20;;;;;;4696723;30;20143;-71
2021/06/16 08:26:14;;;;;;;2.05;0.60;;;25.00;50.00;;;;;;4697744;30;20123;-71
2021/06/16 08:28:42;;;;;;;1.80;0.63;;;25.10;49.90;;;;;;4697879;30;20061;-72
2021/06/16 08:31:09;;;;;;;1.15;0.70;;;25.20;49.80;;;;;;4699393;30;20069;-72
2021/06/16 08:33:37;;;;;;;1.40;0.70;;;25.30;49.60;;;;;;4692587;30;20173;-72
2021/06/16 08:36:05;;;;;;;2.45;0.90;;;25.30;49.30;;;;;;4687798;30;20092;-72
2021/06/16 08:38:33;;;;;;;2.33;0.70;;;25.40;49.30;;;;;;4686599;30;20085;-72
2021/06/16 08:41:07;;;;;;;1.55;0.63;;;25.50;49.30;;;;;;4671602;30;20120;-72
2021/06/16 08:43:39;;;;;;;2.92;0.85;;;25.60;49.10;;;;;;4671525;30;20041;-72
2021/06/16 08:46:09;;;;;;;1.48;0.65;;;25.70;48.90;;;;;;4696968;30;20088;-71
2021/06/16 08:48:38;;;;;;;1.98;0.82;;;25.80;48.90;;;;;;4688940;30;20399;-72
2021/06/16 08:51:07;;;;;;;2.90;1.08;;;25.90;48.70;;;;;;4697560;30;20095;-72
2021/06/16 08:53:34;;;;;;;2.17;0.90;;;25.90;48.20;;;;;;4674845;30;20042;-72
2021/06/16 08:56:02;;;;;;;1.77;1.02;;;25.90;48.80;;;;;;4704631;30;20053;-72
2021/06/16 08:58:37;;;;;;;1.88;0.70;;;25.90;48.20;;;;;;4683176;30;20124;-72
2021/06/16 09:01:06;;;;;;;1.83;0.90;;;26.00;48.10;;;;;;4694063;30;20586;-72
2021/06/16 09:03:35;;;;;;;2.55;1.00;;;26.10;48.00;;;;;;4695147;30;20480;-72
2021/06/16 09:06:13;;;;;;;2.85;0.68;;;26.10;47.90;;;;;;4703626;30;20087;-72
2021/06/16 09:09:00;;;;;;;2.35;1.20;;;26.20;47.60;;;;;;4679770;30;20041;-72
2021/06/16 09:11:31;;;;;;;1.65;0.80;;;26.30;47.40;;;;;;4700391;30;20052;-72
2021/06/16 09:14:16;;;;;;;1.85;0.90;;;26.30;47.50;;;;;;4682997;30;20426;-73
2021/06/16 09:16:43;;;;;;;2.08;1.13;;;26.40;47.40;;;;;;4695573;30;20399;-72
2021/06/16 09:19:22;;;;;;;2.67;1.00;;;26.40;47.20;;;;;;4682071;30;20108;-73
2021/06/16 09:22:06;;;;;;;2.20;1.13;;;26.50;47.20;;;;;;4693795;30;20828;-72
2021/06/16 09:24:44;;;;;;;1.80;0.80;;;26.40;46.90;;;;;;4694351;30;20044;-72
2021/06/16 09:27:31;;;;;;;2.03;0.90;;;26.50;47.00;;;;;;4678830;30;20099;-72
2021/06/16 09:29:58;;;;;;;1.23;0.75;;;26.50;46.90;;;;;;4689099;30;20057;-72
2021/06/16 09:32:40;;;;;;;1.15;0.70;;;26.70;46.90;;;;;;4695965;30;20534;-72
2021/06/16 09:35:20;;;;;;;;;;;26.80;46.60;;;;;;4679458;30;20115;-73
2021/06/16 09:37:48;;;;;;;1.73;0.80;;;26.90;46.60;;;;;;4701658;30;19966;-73
2021/06/16 09:40:24;;;;;;;1.83;0.90;;;26.90;46.60;;;;;;4693469;30;20053;-72
2021/06/16 09:42:59;;;;;;;2.80;0.60;;;27.20;46.40;;;;;;4707341;30;20049;-72
2021/06/16 09:45:27;;;;;;;1.08;0.65;;;27.30;46.20;;;;;;4692344;30;20045;-73
2021/06/16 09:47:55;;;;;;;1.60;0.70;;;27.40;46.00;;;;;;4707661;30;20430;-72
2021/06/16 09:50:26;;;;;;;1.27;0.55;;;27.40;45.90;;;;;;4705061;30;20053;-73
2021/06/16 09:52:53;;;;;;;2.45;0.80;;;27.40;45.80;;;;;;4674079;30;20857;-72
2021/06/16 09:55:29;;;;;;;2.85;1.15;;;27.40;45.60;;;;;;4688069;30;20641;-72
2021/06/16 09:58:06;;;;;;;1.60;0.90;;;27.50;45.40;;;;;;4689000;30;20398;-72
2021/06/16 10:00:42;;;;;;;2.20;0.80;;;27.40;45.30;;;;;;4696976;30;20565;-73
2021/06/16 10:03:24;;;;;;;2.47;1.00;;;27.40;45.40;;;;;;4709017;30;20424;-72
2021/06/16 10:06:02;;;;;;;1.92;0.63;;;27.60;45.30;;;;;;4679756;30;20498;-72
2021/06/16 10:08:31;;;;;;;1.15;0.60;;;27.70;45.10;;;;;;4682015;30;20057;-72
2021/06/16 10:11:00;;;;;;;1.45;0.80;;;27.80;45.10;;;;;;4700199;30;20080;-72
2021/06/16 10:13:28;;;;;;;2.58;0.90;;;27.80;44.90;;;;;;4703974;30;20053;-72
2021/06/16 10:15:56;;;;;;;1.77;0.70;;;27.80;44.90;;;;;;4701833;30;20135;-72
2021/06/16 10:18:24;;;;;;;2.15;0.70;;;27.80;44.90;;;;;;4686446;30;20434;-72
2021/06/16 10:20:52;;;;;;;1.88;0.80;;;27.90;44.90;;;;;;4672136;30;20072;-73
2021/06/16 10:23:19;;;;;;;2.13;0.80;;;28.00;44.70;;;;;;4701316;30;20053;-72
2021/06/16 10:25:47;;;;;;;1.48;0.70;;;28.10;44.70;;;;;;4701554;30;20061;-73
2021/06/16 10:28:18;;;;;;;1.65;0.73;;;28.20;44.60;;;;;;4689933;30;20042;-73
2021/06/16 10:30:52;;;;;;;1.35;0.70;;;28.30;44.50;;;;;;4699833;30;20049;-72
2021/06/16 10:33:30;;;;;;;1.63;0.80;;;28.40;44.40;;;;;;4688583;30;20045;-72
2021/06/16 10:36:21;;;;;;;3.15;0.80;;;28.40;44.30;;;;;;4711666;30;20132;-72
2021/06/16 10:38:58;;;;;;;2.83;0.85;;;28.50;44.40;;;;;;4684271;30;20067;-71
2021/06/16 10:41:47;;;;;;;1.55;0.73;;;28.60;44.40;;;;;;4680736;30;20507;-75
2021/06/16 10:44:21;;;;;;;1.10;0.80;;;28.70;44.20;;;;;;4675044;30;20058;-72
2021/06/16 10:46:54;;;;;;;1.38;0.75;;;28.70;44.10;;;;;;4698633;30;20104;-72
2021/06/16 10:49:39;;;;;;;1.83;0.95;;;28.90;44.10;;;;;;4698005;30;20166;-71
2021/06/16 10:52:08;;;;;;;1.38;0.75;;;29.00;43.70;;;;;;4686920;30;20057;-71
2021/06/16 10:54:36;;;;;;;2.38;0.80;;;29.00;44.40;;;;;;4670681;30;20103;-71
2021/06/16 10:57:09;;;;;;;1.42;0.88;;;29.10;43.70;;;;;;4697160;30;20057;-71
2021/06/16 10:59:42;;;;;;;1.92;0.77;;;29.20;43.70;;;;;;4684278;30;20462;-71
2021/06/16 11:02:39;;;;;;;1.50;0.90;;;29.30;43.60;;;;;;4694186;30;20059;-71
2021/06/16 11:05:18;;;;;;;1.27;0.60;;;29.40;43.50;;;;;;4687638;30;20145;-70
2021/06/16 11:07:45;;;;;;;1.70;0.70;;;29.40;43.40;;;;;;4699644;30;20060;-71
2021/06/16 11:10:13;;;;;;;1.33;0.88;;;29.50;43.30;;;;;;4699894;30;20375;-71
2021/06/16 11:12:42;;;;;;;0.75;0.52;;;29.50;43.30;;;;;;4705956;30;20142;-72
2021/06/16 11:15:24;;;;;;;1.55;0.57;;;29.60;43.20;;;;;;4686583;30;20053;-71
2021/06/16 11:17:52;;;;;;;1.10;0.70;;;29.70;43.10;;;;;;4684768;30;20496;-71
2021/06/16 11:20:33;;;;;;;1.88;0.77;;;29.80;43.10;;;;;;4699058;30;20049;-71
2021/06/16 11:23:02;;;;;;;2.20;0.70;;;29.90;43.00;;;;;;4703018;30;20076;-71
2021/06/16 11:25:37;;;;;;;1.42;0.77;;;30.00;42.90;;;;;;4689878;30;20111;-71
2021/06/16 11:28:33;;;;;;;1.83;0.77;;;30.10;42.90;;;;;;4690954;30;20050;-71
2021/06/16 11:31:00;;;;;;;1.40;0.75;;;30.20;42.90;;;;;;4693120;30;20049;-71
2021/06/16 11:33:35;;;;;;;2.13;1.08;;;30.20;42.80;;;;;;4682158;30;20056;-71
2021/06/16 11:36:12;;;;;;;2.00;0.80;;;30.20;42.70;;;;;;4682274;30;20058;-69
2021/06/16 11:38:53;;;;;;;1.63;0.90;;;30.30;42.70;;;;;;4696267;30;20557;-68
2021/06/16 11:41:25;;;;;;;1.77;0.73;;;30.40;42.80;;;;;;4696145;30;20121;-68
2021/06/16 11:44:18;;;;;;;1.95;0.98;;;30.50;42.60;;;;;;4699117;30;20049;-69
2021/06/16 11:46:48;;;;;;;1.63;1.02;;;30.60;42.50;;;;;;4706003;30;20041;-68
2021/06/16 11:49:20;;;;;;;1.15;0.50;;;30.80;42.40;;;;;;4695541;30;20092;-68
2021/06/16 11:51:50;;;;;;;2.47;0.98;;;31.00;42.20;;;;;;4701533;30;20510;-69
2021/06/16 11:54:23;;;;;;;1.58;0.98;;;31.10;41.90;;;;;;4697099;30;20352;-69
2021/06/16 11:57:12;;;;;;;2.17;0.93;;;31.40;41.60;;;;;;4691853;30;20123;-69
2021/06/16 11:59:43;;;;;;;3.80;1.35;;;31.70;41.20;;;;;;4666263;30;20060;-68
2021/06/16 12:02:10;;;;;;;1.27;0.93;;;31.90;41.10;;;;;;4690377;30;20060;-68
2021/06/16 12:04:53;;;;;;;2.58;1.30;;;32.10;41.00;;;;;;4694997;30;20064;-68
2021/06/16 12:07:32;;;;;;;1.65;1.15;;;32.40;40.60;;;;;;4690866;30;20834;-68
2021/06/16 12:10:23;;;;;;;1.58;1.20;;;32.70;40.30;;;;;;4688606;30;20049;-69
2021/06/16 12:12:53;;;;;;;2.75;0.95;;;33.00;39.80;;;;;;4698532;30;20073;-68
2021/06/16 12:15:28;;;;;;;2.47;1.17;;;33.20;39.80;;;;;;4706367;30;20046;-68
2021/06/16 12:17:57;;;;;;;2.05;1.30;;;33.50;39.50;;;;;;4672572;30;20057;-69
2021/06/16 12:20:27;;;;;;;2.90;1.38;;;33.70;39.20;;;;;;4702363;30;20049;-69
2021/06/16 12:22:54;;;;;;;1.95;1.20;;;33.90;39.10;;;;;;4705262;30;20077;-69
2021/06/16 12:25:25;;;;;;;1.70;0.90;;;34.00;39.10;;;;;;4709657;30;20053;-70
2021/06/16 12:27:52;;;;;;;1.73;1.13;;;34.30;38.90;;;;;;4683265;30;20053;-69
2021/06/16 12:30:27;;;;;;;1.98;1.20;;;34.50;38.70;;;;;;4695236;30;20309;-69
2021/06/16 12:33:23;;;;;;;2.75;1.02;;;34.20;38.50;;;;;;4670470;30;20050;-70
2021/06/16 12:38:43;;;;;;;2.22;1.27;;;33.30;39.40;;;;;;4697604;30;20058;-69
2021/06/16 12:41:32;;;;;;;2.88;0.93;;;33.60;39.20;;;;;;4696026;30;20075;-70
2021/06/16 12:44:16;;;;;;;1.83;1.05;;;34.20;38.90;;;;;;4682335;30;20403;-70
2021/06/16 12:46:50;;;;;;;2.95;0.90;;;34.90;38.40;;;;;;4675289;30;20050;-70
2021/06/16 12:49:18;;;;;;;1.67;0.93;;;35.30;38.00;;;;;;4678790;30;20058;-71
2021/06/16 12:51:50;;;;;;;1.95;1.00;;;35.60;37.90;;;;;;4694173;30;20158;-71
2021/06/16 12:54:36;;;;;;;3.05;1.13;;;35.80;37.70;;;;;;4697839;30;20461;-71
2021/06/16 12:57:07;;;;;;;2.15;1.10;;;35.90;37.50;;;;;;4694236;30;20422;-71
2021/06/16 12:59:43;;;;;;;1.63;0.90;;;35.70;37.60;;;;;;4693385;30;20050;-72
2021/06/16 13:02:12;;;;;;;1.88;0.93;;;35.40;37.80;;;;;;4691321;30;20622;-73
2021/06/16 13:04:45;;;;;;;2.25;0.95;;;35.10;38.20;;;;;;4686966;30;20053;-72
2021/06/16 13:07:12;;;;;;;1.77;1.05;;;35.10;38.20;;;;;;4693389;30;20045;-72